BVX165B GVNP-EGCC
Flight info
| Callsign | BVX165B |
|---|---|
| Flight time | N/A |
| Altitude | 39000 |
| Route | AMDER1N CVS UN873 IPERA N873 LIMAL T770 URQUI/N0481F400 Y422 GOMER N981 BIMBO Q206 SNT T16 IDREL T13 MANOX/M084F400 T13 NILAV/M084F410 DCT RATKA/N0479F410 DCT PAVLO DCT PEPZE DCT AXCIS |
| Aircraft | A359/H-SDE2E3GHIJ3J4J5LM1ORWXY/LB1D1 |
Departure
| Time | 2026-04-21 14:37 |
|---|---|
| Airport | Nelson Mandela International Airport (GVNP) |
Arrival
| Time | N/A |
|---|---|
| Airport | Manchester Airport (EGCC) |
| Time | Latitude | Longitude | Altitude | Speed | Heading |
|---|---|---|---|---|---|
| 2026-04-21 14:09 | 14.94433 | -23.48574 | 344 ft | 0 kts | 291° |
| 2026-04-21 14:25 | 14.94432 | -23.48572 | 344 ft | 2 kts | 290° |
| 2026-04-21 14:25 | 14.94429 | -23.48565 | 345 ft | 2 kts | 279° |
| 2026-04-21 14:25 | 14.94427 | -23.48543 | 349 ft | 3 kts | 261° |
| 2026-04-21 14:26 | 14.94433 | -23.48520 | 358 ft | 3 kts | 250° |
| 2026-04-21 14:26 | 14.94437 | -23.48507 | 358 ft | 1 kts | 253° |
| 2026-04-21 14:26 | 14.94437 | -23.48506 | 348 ft | 0 kts | 252° |
| 2026-04-21 14:30 | 14.94436 | -23.48508 | 348 ft | 0 kts | 245° |
| 2026-04-21 14:30 | 14.94424 | -23.48514 | 358 ft | 4 kts | 201° |
| 2026-04-21 14:30 | 14.94399 | -23.48513 | 347 ft | 3 kts | 152° |
| 2026-04-21 14:31 | 14.94382 | -23.48498 | 348 ft | 4 kts | 137° |
| 2026-04-21 14:31 | 14.94360 | -23.48474 | 358 ft | 5 kts | 126° |
| 2026-04-21 14:31 | 14.94339 | -23.48439 | 357 ft | 6 kts | 129° |
| 2026-04-21 14:31 | 14.94297 | -23.48416 | 350 ft | 10 kts | 165° |
| 2026-04-21 14:32 | 14.94193 | -23.48438 | 353 ft | 19 kts | 201° |
| 2026-04-21 14:32 | 14.94039 | -23.48502 | 356 ft | 27 kts | 202° |
| 2026-04-21 14:32 | 14.93859 | -23.48575 | 356 ft | 29 kts | 201° |
| 2026-04-21 14:32 | 14.93691 | -23.48642 | 351 ft | 24 kts | 202° |
| 2026-04-21 14:33 | 14.93533 | -23.48709 | 337 ft | 23 kts | 202° |
| 2026-04-21 14:33 | 14.93395 | -23.48766 | 336 ft | 19 kts | 201° |
| 2026-04-21 14:33 | 14.93287 | -23.48804 | 333 ft | 10 kts | 185° |
| 2026-04-21 14:33 | 14.93216 | -23.48816 | 330 ft | 6 kts | 218° |
| 2026-04-21 14:34 | 14.93211 | -23.48837 | 334 ft | 0 kts | 278° |
| 2026-04-21 14:34 | 14.93213 | -23.48840 | 333 ft | 1 kts | 295° |
| 2026-04-21 14:34 | 14.93223 | -23.48842 | 334 ft | 1 kts | 350° |
| 2026-04-21 14:34 | 14.93235 | -23.48835 | 329 ft | 1 kts | 24° |
| 2026-04-21 14:36 | 14.93237 | -23.48833 | 335 ft | 0 kts | 24° |
| 2026-04-21 14:37 | 14.93291 | -23.48809 | 331 ft | 38 kts | 22° |
| 2026-04-21 14:37 | 14.93819 | -23.48592 | 354 ft | 123 kts | 22° |
| 2026-04-21 14:37 | 14.94763 | -23.48220 | 942 ft | 142 kts | 21° |
| 2026-04-21 14:38 | 14.95622 | -23.47869 | 2010 ft | 132 kts | 22° |
| 2026-04-21 14:38 | 14.96495 | -23.47511 | 2236 ft | 141 kts | 21° |
| 2026-04-21 14:38 | 14.97450 | -23.47108 | 2401 ft | 157 kts | 21° |
| 2026-04-21 14:38 | 14.98518 | -23.46657 | 2550 ft | 173 kts | 21° |
| 2026-04-21 14:39 | 14.99692 | -23.46167 | 2734 ft | 191 kts | 21° |
| 2026-04-21 14:39 | 15.00989 | -23.45626 | 2905 ft | 210 kts | 21° |
| 2026-04-21 14:39 | 15.02396 | -23.45041 | 3248 ft | 226 kts | 20° |
| 2026-04-21 14:39 | 15.03900 | -23.44419 | 3718 ft | 242 kts | 20° |
| 2026-04-21 14:40 | 15.05519 | -23.43746 | 4091 ft | 258 kts | 20° |
| 2026-04-21 14:40 | 15.07219 | -23.43039 | 4525 ft | 268 kts | 18° |
| 2026-04-21 14:40 | 15.08966 | -23.42313 | 4985 ft | 273 kts | 19° |
| 2026-04-21 14:40 | 15.10763 | -23.41646 | 5459 ft | 276 kts | 12° |
| 2026-04-21 14:41 | 15.12649 | -23.41236 | 5917 ft | 280 kts | 7° |
| 2026-04-21 14:41 | 15.14578 | -23.40882 | 6391 ft | 284 kts | 7° |
| 2026-04-21 14:41 | 15.16532 | -23.40522 | 6855 ft | 287 kts | 7° |
| 2026-04-21 14:41 | 15.18516 | -23.40154 | 7431 ft | 291 kts | 7° |
| 2026-04-21 14:42 | 15.20517 | -23.39780 | 7973 ft | 296 kts | 7° |
| 2026-04-21 14:42 | 15.22568 | -23.39393 | 8509 ft | 300 kts | 7° |
| 2026-04-21 14:42 | 15.24631 | -23.39004 | 9001 ft | 303 kts | 7° |
| 2026-04-21 14:42 | 15.26716 | -23.38611 | 9497 ft | 306 kts | 7° |
| 2026-04-21 14:43 | 15.28823 | -23.38214 | 9975 ft | 310 kts | 7° |
| 2026-04-21 14:43 | 15.30968 | -23.37811 | 10289 ft | 320 kts | 7° |
| 2026-04-21 14:43 | 15.33197 | -23.37393 | 10497 ft | 332 kts | 7° |
| 2026-04-21 14:43 | 15.35515 | -23.36957 | 10723 ft | 344 kts | 7° |
| 2026-04-21 14:44 | 15.37906 | -23.36506 | 10938 ft | 354 kts | 7° |
| 2026-04-21 14:44 | 15.40355 | -23.36044 | 11176 ft | 364 kts | 7° |
| 2026-04-21 14:44 | 15.42873 | -23.35567 | 11480 ft | 370 kts | 7° |
| 2026-04-21 14:44 | 15.45423 | -23.35084 | 11860 ft | 374 kts | 7° |
| 2026-04-21 14:45 | 15.47994 | -23.34597 | 12288 ft | 376 kts | 7° |
| 2026-04-21 14:45 | 15.50574 | -23.34108 | 12704 ft | 379 kts | 7° |
| 2026-04-21 14:45 | 15.53174 | -23.33616 | 13106 ft | 381 kts | 7° |
| 2026-04-21 14:45 | 15.55788 | -23.33121 | 13519 ft | 383 kts | 7° |
| 2026-04-21 14:46 | 15.58420 | -23.32607 | 13899 ft | 386 kts | 8° |
| 2026-04-21 14:46 | 15.61028 | -23.31887 | 14268 ft | 390 kts | 13° |
| 2026-04-21 14:46 | 15.63624 | -23.31051 | 14646 ft | 391 kts | 14° |
| 2026-04-21 14:46 | 15.66222 | -23.30204 | 15030 ft | 392 kts | 14° |
| 2026-04-21 14:47 | 15.68839 | -23.29351 | 15424 ft | 394 kts | 14° |
| 2026-04-21 14:47 | 15.71449 | -23.28501 | 15817 ft | 395 kts | 14° |
| 2026-04-21 14:47 | 15.74082 | -23.27645 | 16196 ft | 397 kts | 13° |
| 2026-04-21 14:47 | 15.76693 | -23.26796 | 16569 ft | 398 kts | 13° |
| 2026-04-21 14:48 | 15.79342 | -23.25935 | 16961 ft | 400 kts | 13° |
| 2026-04-21 14:48 | 15.82030 | -23.25061 | 17334 ft | 401 kts | 13° |
| 2026-04-21 14:48 | 15.84667 | -23.24203 | 17706 ft | 403 kts | 13° |
| 2026-04-21 14:48 | 15.87380 | -23.23320 | 18100 ft | 404 kts | 13° |
| 2026-04-21 14:49 | 15.90067 | -23.22446 | 18437 ft | 406 kts | 13° |
| 2026-04-21 14:49 | 15.92733 | -23.21578 | 18758 ft | 406 kts | 13° |
| 2026-04-21 14:49 | 15.95454 | -23.20692 | 19089 ft | 407 kts | 13° |
| 2026-04-21 14:49 | 15.98167 | -23.19808 | 19420 ft | 408 kts | 13° |
| 2026-04-21 14:50 | 15.99961 | -23.19224 | 19643 ft | 408 kts | 13° |
| 2026-04-21 14:50 | 16.03552 | -23.18054 | 20064 ft | 409 kts | 13° |
| 2026-04-21 14:50 | 16.06271 | -23.17167 | 20383 ft | 410 kts | 13° |
| 2026-04-21 14:50 | 16.08992 | -23.16280 | 20703 ft | 411 kts | 12° |
| 2026-04-21 14:51 | 16.11728 | -23.15388 | 20998 ft | 412 kts | 12° |
| 2026-04-21 14:51 | 16.14461 | -23.14496 | 21293 ft | 413 kts | 12° |
| 2026-04-21 14:51 | 16.17202 | -23.13602 | 21584 ft | 414 kts | 12° |
| 2026-04-21 14:51 | 16.19964 | -23.12700 | 21879 ft | 414 kts | 12° |
| 2026-04-21 14:52 | 16.22709 | -23.11804 | 22148 ft | 415 kts | 12° |
| 2026-04-21 14:52 | 16.25470 | -23.10902 | 22420 ft | 416 kts | 12° |
| 2026-04-21 14:52 | 16.28237 | -23.09998 | 22698 ft | 417 kts | 12° |
| 2026-04-21 14:52 | 16.31010 | -23.09092 | 22971 ft | 418 kts | 12° |
| 2026-04-21 14:53 | 16.33785 | -23.08185 | 23228 ft | 419 kts | 12° |
| 2026-04-21 14:53 | 16.36563 | -23.07276 | 23490 ft | 420 kts | 12° |
| 2026-04-21 14:53 | 16.39357 | -23.06362 | 23695 ft | 421 kts | 12° |
| 2026-04-21 14:53 | 16.42150 | -23.05449 | 23865 ft | 423 kts | 11° |
| 2026-04-21 14:54 | 16.44968 | -23.04527 | 24009 ft | 425 kts | 11° |
| 2026-04-21 14:54 | 16.47796 | -23.03601 | 24197 ft | 426 kts | 11° |
| 2026-04-21 14:54 | 16.50632 | -23.02672 | 24372 ft | 428 kts | 11° |
| 2026-04-21 14:54 | 16.53479 | -23.01740 | 24549 ft | 429 kts | 11° |
| 2026-04-21 14:55 | 16.56336 | -23.00803 | 24709 ft | 431 kts | 11° |
| 2026-04-21 14:55 | 16.59192 | -22.99867 | 24900 ft | 432 kts | 11° |
| 2026-04-21 14:55 | 16.62065 | -22.98925 | 25061 ft | 434 kts | 11° |
| 2026-04-21 14:55 | 16.64953 | -22.97977 | 25237 ft | 435 kts | 11° |
| 2026-04-21 14:56 | 16.67849 | -22.97027 | 25399 ft | 437 kts | 11° |
| 2026-04-21 14:56 | 16.70750 | -22.96075 | 25572 ft | 438 kts | 11° |
| 2026-04-21 14:56 | 16.73636 | -22.94979 | 25733 ft | 445 kts | 17° |
| 2026-04-21 14:56 | 16.76415 | -22.93522 | 25898 ft | 450 kts | 22° |
| 2026-04-21 14:57 | 16.79162 | -22.91916 | 26084 ft | 453 kts | 24° |
| 2026-04-21 14:57 | 16.81885 | -22.90255 | 26269 ft | 455 kts | 24° |
| 2026-04-21 14:57 | 16.84618 | -22.88564 | 26425 ft | 457 kts | 24° |
| 2026-04-21 14:57 | 16.87360 | -22.86869 | 26602 ft | 458 kts | 24° |
| 2026-04-21 14:58 | 16.90107 | -22.85179 | 26761 ft | 459 kts | 24° |
| 2026-04-21 14:58 | 16.92872 | -22.83488 | 26931 ft | 461 kts | 24° |
| 2026-04-21 14:58 | 16.95638 | -22.81803 | 27107 ft | 462 kts | 24° |
| 2026-04-21 14:58 | 16.98423 | -22.80110 | 27277 ft | 464 kts | 24° |
| 2026-04-21 14:59 | 17.01215 | -22.78416 | 27456 ft | 465 kts | 24° |
| 2026-04-21 14:59 | 17.04024 | -22.76710 | 27627 ft | 467 kts | 24° |
| 2026-04-21 14:59 | 17.06835 | -22.75002 | 27799 ft | 469 kts | 24° |
| 2026-04-21 14:59 | 17.09659 | -22.73285 | 27986 ft | 470 kts | 23° |
| 2026-04-21 15:00 | 17.12496 | -22.71559 | 28166 ft | 472 kts | 23° |
| 2026-04-21 15:00 | 17.15341 | -22.69828 | 28339 ft | 473 kts | 23° |
| 2026-04-21 15:00 | 17.18188 | -22.68095 | 28524 ft | 475 kts | 23° |
| 2026-04-21 15:00 | 17.21058 | -22.66347 | 28697 ft | 476 kts | 23° |
| 2026-04-21 15:01 | 17.23888 | -22.64622 | 28881 ft | 478 kts | 23° |
| 2026-04-21 15:01 | 17.26769 | -22.62866 | 29055 ft | 480 kts | 23° |
| 2026-04-21 15:01 | 17.29651 | -22.61110 | 29236 ft | 481 kts | 23° |
| 2026-04-21 15:01 | 17.32546 | -22.59344 | 29412 ft | 483 kts | 23° |
| 2026-04-21 15:02 | 17.35456 | -22.57568 | 29603 ft | 484 kts | 23° |
| 2026-04-21 15:02 | 17.38375 | -22.55786 | 29785 ft | 486 kts | 23° |
| 2026-04-21 15:02 | 17.41300 | -22.54000 | 29979 ft | 488 kts | 23° |
| 2026-04-21 15:02 | 17.44232 | -22.52209 | 30159 ft | 489 kts | 23° |
| 2026-04-21 15:03 | 17.47173 | -22.50412 | 30332 ft | 491 kts | 23° |
| 2026-04-21 15:03 | 17.50128 | -22.48605 | 30504 ft | 493 kts | 23° |
| 2026-04-21 15:03 | 17.53096 | -22.46791 | 30661 ft | 494 kts | 23° |
| 2026-04-21 15:03 | 17.56079 | -22.44966 | 30815 ft | 496 kts | 23° |
| 2026-04-21 15:04 | 17.59063 | -22.43139 | 31019 ft | 498 kts | 23° |
| 2026-04-21 15:04 | 17.62059 | -22.41305 | 31178 ft | 500 kts | 23° |
| 2026-04-21 15:04 | 17.65059 | -22.39468 | 31353 ft | 501 kts | 23° |
| 2026-04-21 15:04 | 17.68082 | -22.37616 | 31509 ft | 503 kts | 23° |
| 2026-04-21 15:05 | 17.71103 | -22.35764 | 31689 ft | 505 kts | 23° |
| 2026-04-21 15:05 | 17.77188 | -22.32032 | 32006 ft | 508 kts | 23° |
| 2026-04-21 15:05 | 17.80247 | -22.30153 | 32186 ft | 509 kts | 23° |
| 2026-04-21 15:06 | 17.83309 | -22.28273 | 32371 ft | 510 kts | 23° |
| 2026-04-21 15:06 | 17.86370 | -22.26392 | 32514 ft | 512 kts | 23° |
| 2026-04-21 15:06 | 17.89455 | -22.24498 | 32660 ft | 514 kts | 23° |
| 2026-04-21 15:06 | 17.92536 | -22.22604 | 32801 ft | 515 kts | 23° |
| 2026-04-21 15:07 | 17.95635 | -22.20698 | 32935 ft | 517 kts | 23° |
| 2026-04-21 15:07 | 17.98739 | -22.18789 | 33070 ft | 519 kts | 23° |
| 2026-04-21 15:07 | 18.01865 | -22.16865 | 33203 ft | 520 kts | 23° |
| 2026-04-21 15:07 | 18.04988 | -22.14943 | 33345 ft | 521 kts | 23° |
| 2026-04-21 15:08 | 18.08127 | -22.13009 | 33485 ft | 523 kts | 23° |
| 2026-04-21 15:08 | 18.11261 | -22.11077 | 33609 ft | 524 kts | 23° |
| 2026-04-21 15:08 | 18.14418 | -22.09130 | 33770 ft | 526 kts | 22° |
| 2026-04-21 15:08 | 18.17570 | -22.07186 | 33904 ft | 527 kts | 22° |
| 2026-04-21 15:09 | 18.20733 | -22.05235 | 34026 ft | 529 kts | 22° |
| 2026-04-21 15:09 | 18.23918 | -22.03269 | 34148 ft | 530 kts | 22° |
| 2026-04-21 15:09 | 18.27097 | -22.01305 | 34308 ft | 530 kts | 22° |
| 2026-04-21 15:09 | 18.30269 | -21.99344 | 34491 ft | 530 kts | 22° |
| 2026-04-21 15:10 | 18.33451 | -21.97376 | 34658 ft | 530 kts | 22° |
| 2026-04-21 15:10 | 18.36622 | -21.95414 | 34835 ft | 530 kts | 22° |
| 2026-04-21 15:10 | 18.39809 | -21.93442 | 35014 ft | 530 kts | 22° |
| 2026-04-21 15:10 | 18.42983 | -21.91478 | 35189 ft | 530 kts | 22° |
| 2026-04-21 15:11 | 18.46175 | -21.89502 | 35374 ft | 530 kts | 22° |
| 2026-04-21 15:11 | 18.49352 | -21.87533 | 35577 ft | 530 kts | 22° |
| 2026-04-21 15:11 | 18.52524 | -21.85568 | 35746 ft | 531 kts | 22° |
| 2026-04-21 15:11 | 18.55717 | -21.83588 | 35931 ft | 531 kts | 22° |
| 2026-04-21 15:12 | 18.58888 | -21.81622 | 36120 ft | 531 kts | 22° |
| 2026-04-21 15:12 | 18.62078 | -21.79642 | 36304 ft | 530 kts | 22° |
| 2026-04-21 15:12 | 18.65252 | -21.77671 | 36525 ft | 530 kts | 22° |
| 2026-04-21 15:12 | 18.68425 | -21.75701 | 36701 ft | 530 kts | 22° |
| 2026-04-21 15:13 | 18.70529 | -21.74394 | 36816 ft | 530 kts | 22° |
| 2026-04-21 15:13 | 18.74782 | -21.71750 | 37065 ft | 530 kts | 22° |
| 2026-04-21 15:13 | 18.77962 | -21.69772 | 37246 ft | 530 kts | 22° |
| 2026-04-21 15:13 | 18.81101 | -21.67820 | 37424 ft | 530 kts | 22° |
| 2026-04-21 15:14 | 18.84266 | -21.65848 | 37676 ft | 529 kts | 21° |
| 2026-04-21 15:14 | 18.87468 | -21.63853 | 37906 ft | 528 kts | 21° |
| 2026-04-21 15:14 | 18.90595 | -21.61904 | 38078 ft | 527 kts | 21° |
| 2026-04-21 15:14 | 18.93791 | -21.59913 | 38265 ft | 527 kts | 21° |
| 2026-04-21 15:15 | 18.96915 | -21.57965 | 38422 ft | 527 kts | 21° |
| 2026-04-21 15:15 | 19.00072 | -21.55997 | 38587 ft | 527 kts | 21° |
| 2026-04-21 15:15 | 19.03226 | -21.54029 | 38733 ft | 527 kts | 21° |
| 2026-04-21 15:15 | 19.06380 | -21.52060 | 38879 ft | 526 kts | 21° |
| 2026-04-21 15:16 | 19.12692 | -21.48117 | 38978 ft | 528 kts | 21° |
| 2026-04-21 15:16 | 19.19006 | -21.44167 | 38989 ft | 526 kts | 21° |
| 2026-04-21 15:17 | 19.25264 | -21.40244 | 38987 ft | 521 kts | 21° |
| 2026-04-21 15:17 | 19.31501 | -21.36338 | 38981 ft | 520 kts | 21° |
| 2026-04-21 15:18 | 19.37729 | -21.32437 | 38976 ft | 521 kts | 21° |
| 2026-04-21 15:18 | 19.43965 | -21.28525 | 38985 ft | 521 kts | 21° |
| 2026-04-21 15:19 | 19.49183 | -21.25248 | 38976 ft | 521 kts | 21° |
| 2026-04-21 15:19 | 19.55404 | -21.21334 | 38982 ft | 517 kts | 22° |
| 2026-04-21 15:20 | 19.61561 | -21.17455 | 38984 ft | 513 kts | 22° |
| 2026-04-21 15:20 | 19.67692 | -21.13597 | 38994 ft | 513 kts | 21° |
| 2026-04-21 15:21 | 19.73784 | -21.09760 | 38985 ft | 513 kts | 21° |
| 2026-04-21 15:21 | 19.79914 | -21.05893 | 38985 ft | 512 kts | 21° |
| 2026-04-21 15:22 | 19.86049 | -21.02020 | 38993 ft | 513 kts | 21° |
| 2026-04-21 15:22 | 19.92188 | -20.98140 | 38982 ft | 513 kts | 21° |
| 2026-04-21 15:23 | 19.98319 | -20.94261 | 38982 ft | 513 kts | 21° |
| 2026-04-21 15:23 | 20.04457 | -20.90375 | 38982 ft | 513 kts | 21° |
| 2026-04-21 15:24 | 20.10595 | -20.86484 | 38980 ft | 513 kts | 21° |
| 2026-04-21 15:24 | 20.16731 | -20.82591 | 38982 ft | 513 kts | 21° |
| 2026-04-21 15:25 | 20.22855 | -20.78703 | 38984 ft | 513 kts | 21° |
| 2026-04-21 15:25 | 20.28985 | -20.74807 | 38982 ft | 513 kts | 21° |
| 2026-04-21 15:26 | 20.35121 | -20.70904 | 38982 ft | 513 kts | 21° |
| 2026-04-21 15:26 | 20.41256 | -20.66998 | 38982 ft | 514 kts | 21° |
| 2026-04-21 15:27 | 20.47387 | -20.63079 | 38985 ft | 514 kts | 21° |
| 2026-04-21 15:27 | 20.53523 | -20.59152 | 38993 ft | 514 kts | 21° |
| 2026-04-21 15:28 | 20.59647 | -20.55233 | 38983 ft | 514 kts | 21° |
| 2026-04-21 15:28 | 20.65782 | -20.51303 | 38982 ft | 515 kts | 21° |
| 2026-04-21 15:29 | 20.71933 | -20.47359 | 38982 ft | 515 kts | 21° |
| 2026-04-21 15:29 | 20.78057 | -20.43427 | 38982 ft | 514 kts | 21° |
| 2026-04-21 15:30 | 20.84184 | -20.39492 | 38982 ft | 514 kts | 21° |
| 2026-04-21 15:30 | 20.90324 | -20.35544 | 38982 ft | 515 kts | 21° |
| 2026-04-21 15:31 | 20.96472 | -20.31589 | 38981 ft | 516 kts | 21° |
| 2026-04-21 15:31 | 21.02635 | -20.27618 | 38981 ft | 516 kts | 21° |
| 2026-04-21 15:32 | 21.08742 | -20.23678 | 38987 ft | 516 kts | 21° |
| 2026-04-21 15:32 | 21.14886 | -20.19711 | 38980 ft | 516 kts | 21° |
| 2026-04-21 15:33 | 21.21044 | -20.15732 | 39007 ft | 516 kts | 20° |
| 2026-04-21 15:33 | 21.27188 | -20.11759 | 38989 ft | 517 kts | 20° |
| 2026-04-21 15:34 | 21.33343 | -20.07773 | 38982 ft | 516 kts | 20° |
| 2026-04-21 15:34 | 21.39498 | -20.03784 | 38985 ft | 516 kts | 20° |
| 2026-04-21 15:35 | 21.45642 | -19.99798 | 38985 ft | 516 kts | 20° |
| 2026-04-21 15:35 | 21.51797 | -19.95802 | 38985 ft | 516 kts | 20° |
| 2026-04-21 15:36 | 21.57946 | -19.91804 | 38994 ft | 516 kts | 20° |
| 2026-04-21 15:36 | 21.64090 | -19.87806 | 38990 ft | 516 kts | 20° |
| 2026-04-21 15:37 | 21.70228 | -19.83808 | 38982 ft | 516 kts | 20° |
| 2026-04-21 15:37 | 21.76369 | -19.79805 | 38996 ft | 516 kts | 20° |
| 2026-04-21 15:38 | 21.82502 | -19.75802 | 38981 ft | 516 kts | 20° |
| 2026-04-21 15:38 | 21.88637 | -19.71794 | 39009 ft | 516 kts | 19° |
| 2026-04-21 15:39 | 21.94728 | -19.67810 | 38987 ft | 515 kts | 19° |
| 2026-04-21 15:39 | 22.00853 | -19.63801 | 38985 ft | 515 kts | 19° |
| 2026-04-21 15:40 | 22.06990 | -19.59780 | 38984 ft | 515 kts | 19° |
| 2026-04-21 15:40 | 22.13110 | -19.55767 | 38985 ft | 515 kts | 19° |
| 2026-04-21 15:41 | 22.19234 | -19.51744 | 38981 ft | 515 kts | 19° |
| 2026-04-21 15:41 | 22.25365 | -19.47711 | 38988 ft | 515 kts | 19° |
| 2026-04-21 15:42 | 22.31461 | -19.43697 | 38985 ft | 514 kts | 19° |
| 2026-04-21 15:42 | 22.37561 | -19.39679 | 38985 ft | 513 kts | 19° |
| 2026-04-21 15:43 | 22.43662 | -19.35657 | 38985 ft | 513 kts | 19° |
| 2026-04-21 15:43 | 22.49753 | -19.31637 | 38985 ft | 513 kts | 19° |
| 2026-04-21 15:44 | 22.55838 | -19.27615 | 39036 ft | 513 kts | 19° |
| 2026-04-21 15:44 | 22.61919 | -19.23588 | 38984 ft | 509 kts | 18° |
| 2026-04-21 15:45 | 22.67952 | -19.19588 | 38983 ft | 508 kts | 18° |
| 2026-04-21 15:45 | 22.73967 | -19.15606 | 38986 ft | 508 kts | 18° |
| 2026-04-21 15:46 | 22.79991 | -19.11611 | 38981 ft | 508 kts | 18° |
| 2026-04-21 15:46 | 22.86019 | -19.07606 | 38986 ft | 507 kts | 18° |
| 2026-04-21 15:47 | 22.92035 | -19.03605 | 38992 ft | 506 kts | 18° |
| 2026-04-21 15:47 | 22.97969 | -18.99649 | 38984 ft | 503 kts | 18° |
| 2026-04-21 15:48 | 23.03958 | -18.95660 | 38982 ft | 502 kts | 18° |
| 2026-04-21 15:48 | 23.09926 | -18.91682 | 38982 ft | 502 kts | 18° |
| 2026-04-21 15:49 | 23.15838 | -18.87736 | 38982 ft | 503 kts | 18° |
| 2026-04-21 15:49 | 23.21796 | -18.83752 | 38979 ft | 503 kts | 18° |
| 2026-04-21 15:50 | 23.27747 | -18.79768 | 38980 ft | 502 kts | 17° |
| 2026-04-21 15:50 | 23.33696 | -18.75782 | 38979 ft | 502 kts | 17° |
| 2026-04-21 15:51 | 23.39643 | -18.71795 | 38980 ft | 502 kts | 17° |
| 2026-04-21 15:51 | 23.45585 | -18.67806 | 38980 ft | 502 kts | 17° |
| 2026-04-21 15:52 | 23.51535 | -18.63807 | 38977 ft | 502 kts | 17° |
| 2026-04-21 15:52 | 23.57471 | -18.59813 | 38977 ft | 502 kts | 17° |
| 2026-04-21 15:53 | 23.63415 | -18.55809 | 38977 ft | 502 kts | 17° |
| 2026-04-21 15:53 | 23.69355 | -18.51804 | 38977 ft | 502 kts | 17° |
| 2026-04-21 15:54 | 23.75300 | -18.47791 | 38980 ft | 502 kts | 17° |
| 2026-04-21 15:54 | 23.81239 | -18.43778 | 38992 ft | 502 kts | 17° |
| 2026-04-21 15:55 | 23.87168 | -18.39766 | 38977 ft | 502 kts | 17° |
| 2026-04-21 15:55 | 23.93114 | -18.35739 | 38978 ft | 502 kts | 17° |
| 2026-04-21 15:56 | 23.99054 | -18.31713 | 38976 ft | 502 kts | 17° |
| 2026-04-21 15:56 | 24.04997 | -18.27679 | 38976 ft | 503 kts | 17° |
| 2026-04-21 15:57 | 24.10936 | -18.23644 | 38976 ft | 503 kts | 17° |
| 2026-04-21 15:57 | 24.16867 | -18.19609 | 38974 ft | 503 kts | 17° |
| 2026-04-21 15:58 | 24.22813 | -18.15560 | 38997 ft | 503 kts | 16° |
| 2026-04-21 15:58 | 24.28750 | -18.11514 | 38971 ft | 504 kts | 16° |
| 2026-04-21 15:59 | 24.34702 | -18.07452 | 38977 ft | 504 kts | 16° |
| 2026-04-21 15:59 | 24.40655 | -18.03383 | 38971 ft | 504 kts | 16° |
| 2026-04-21 16:00 | 24.46596 | -17.99319 | 38974 ft | 504 kts | 16° |
| 2026-04-21 16:00 | 24.52540 | -17.95248 | 38974 ft | 504 kts | 16° |
| 2026-04-21 16:01 | 24.58490 | -17.91170 | 38975 ft | 505 kts | 16° |
| 2026-04-21 16:01 | 24.64418 | -17.87105 | 38971 ft | 506 kts | 16° |
| 2026-04-21 16:02 | 24.70396 | -17.82996 | 38970 ft | 506 kts | 16° |
| 2026-04-21 16:02 | 24.75399 | -17.79553 | 38970 ft | 506 kts | 16° |
| 2026-04-21 16:03 | 24.82338 | -17.74773 | 38970 ft | 506 kts | 16° |
| 2026-04-21 16:03 | 24.88308 | -17.70657 | 38989 ft | 506 kts | 17° |
| 2026-04-21 16:04 | 24.93298 | -17.67212 | 38966 ft | 506 kts | 17° |
| 2026-04-21 16:04 | 24.99309 | -17.63277 | 38966 ft | 490 kts | 9° |
| 2026-04-21 16:05 | 25.02410 | -17.61923 | 38970 ft | 471 kts | 1° |
| 2026-04-21 16:05 | 25.05519 | -17.60870 | 38965 ft | 467 kts | 0° |
| 2026-04-21 16:05 | 25.11768 | -17.58937 | 38966 ft | 465 kts | 359° |
| 2026-04-21 16:06 | 25.18026 | -17.57063 | 38966 ft | 465 kts | 359° |
| 2026-04-21 16:06 | 25.24225 | -17.55192 | 38968 ft | 465 kts | 360° |
| 2026-04-21 16:07 | 25.30462 | -17.53289 | 38972 ft | 464 kts | 360° |
| 2026-04-21 16:07 | 25.36688 | -17.51385 | 38963 ft | 464 kts | 360° |
| 2026-04-21 16:08 | 25.46026 | -17.48525 | 38960 ft | 464 kts | 360° |
| 2026-04-21 16:09 | 25.52292 | -17.46604 | 38972 ft | 464 kts | 0° |
| 2026-04-21 16:09 | 25.58519 | -17.44692 | 38966 ft | 464 kts | 0° |
| 2026-04-21 16:10 | 25.64729 | -17.42784 | 38963 ft | 463 kts | 0° |
| 2026-04-21 16:10 | 25.70950 | -17.40872 | 38963 ft | 463 kts | 0° |
| 2026-04-21 16:11 | 25.77158 | -17.38963 | 38966 ft | 463 kts | 1° |
| 2026-04-21 16:11 | 25.83379 | -17.37048 | 38975 ft | 465 kts | 2° |
| 2026-04-21 16:12 | 25.89630 | -17.35119 | 38960 ft | 467 kts | 2° |